createdAt,value
2018-10-19T00:00:10.312Z,82.80
2018-10-19T00:02:40.783Z,82.80
2018-10-19T00:05:11.506Z,82.90
2018-10-19T00:07:41.848Z,82.90
2018-10-19T00:10:12.202Z,82.80
2018-10-19T00:12:42.634Z,82.70
2018-10-19T00:15:13.016Z,82.90
2018-10-19T00:17:43.403Z,83.10
2018-10-19T00:20:13.703Z,83.00
2018-10-19T00:22:44.309Z,83.20
2018-10-19T00:25:14.677Z,83.20
2018-10-19T00:27:45.044Z,83.30
2018-10-19T00:30:15.356Z,83.20
2018-10-19T00:32:45.649Z,83.40
2018-10-19T00:35:16.051Z,83.40
2018-10-19T00:37:46.322Z,83.60
2018-10-19T00:40:16.682Z,83.60
2018-10-19T00:42:46.971Z,83.60
2018-10-19T00:45:17.584Z,83.60
2018-10-19T00:47:48.132Z,83.60
2018-10-19T00:50:18.461Z,83.60
2018-10-19T00:52:48.929Z,83.60
2018-10-19T00:55:19.226Z,83.70
2018-10-19T00:57:49.522Z,83.80
2018-10-19T01:00:20.078Z,83.90
2018-10-19T01:02:50.348Z,83.90
2018-10-19T01:05:20.775Z,83.90
2018-10-19T01:07:51.127Z,83.70
2018-10-19T01:10:24.937Z,83.60
2018-10-19T01:12:57.305Z,83.40
2018-10-19T01:15:28.978Z,83.30
2018-10-19T01:18:01.027Z,83.30
2018-10-19T01:20:31.711Z,83.10
2018-10-19T01:23:02.082Z,83.10
2018-10-19T01:25:32.586Z,82.90
2018-10-19T01:28:02.973Z,82.80
2018-10-19T01:30:33.317Z,82.80
2018-10-19T01:33:03.621Z,82.60
2018-10-19T01:35:33.973Z,82.70
2018-10-19T01:38:04.293Z,82.60
2018-10-19T01:40:34.819Z,82.60
2018-10-19T01:43:05.317Z,82.50
2018-10-19T01:45:35.797Z,82.50
2018-10-19T01:48:06.410Z,82.30
2018-10-19T01:50:36.939Z,82.40
2018-10-19T01:53:07.447Z,82.50
2018-10-19T01:55:37.930Z,82.90
2018-10-19T01:58:08.375Z,82.90
2018-10-19T02:00:39.134Z,83.90
2018-10-19T02:03:09.718Z,83.20
2018-10-19T02:05:40.331Z,83.50
2018-10-19T02:08:11.495Z,83.40
2018-10-19T02:10:41.927Z,83.30
2018-10-19T02:13:12.386Z,83.20
2018-10-19T02:15:42.909Z,83.10
2018-10-19T02:18:13.398Z,82.80
2018-10-19T02:20:43.911Z,82.80
2018-10-19T02:23:14.352Z,82.80
2018-10-19T02:25:44.781Z,82.60
2018-10-19T02:28:15.237Z,82.50
2018-10-19T02:30:45.643Z,82.00
2018-10-19T02:33:16.163Z,82.30
2018-10-19T02:35:46.581Z,82.20
2018-10-19T02:38:16.990Z,82.20
2018-10-19T02:40:47.450Z,81.90
2018-10-19T02:43:17.883Z,82.10
2018-10-19T02:45:48.310Z,82.00
2018-10-19T02:48:19.071Z,82.00
2018-10-19T02:50:49.618Z,82.10
2018-10-19T02:53:20.097Z,83.30
2018-10-19T02:55:50.530Z,83.40
2018-10-19T02:58:20.972Z,83.50
2018-10-19T03:00:51.390Z,84.10
2018-10-19T03:03:21.818Z,84.80
2018-10-19T03:05:52.255Z,84.30
2018-10-19T03:08:22.731Z,84.30
2018-10-19T03:10:53.315Z,84.30
2018-10-19T03:13:23.883Z,84.30
2018-10-19T03:15:55.430Z,84.20
2018-10-19T03:18:25.834Z,84.30
2018-10-19T03:20:56.327Z,84.40
2018-10-19T03:23:26.772Z,84.50
2018-10-19T03:25:57.250Z,84.80
2018-10-19T03:28:27.732Z,84.80
2018-10-19T03:30:58.240Z,85.00
2018-10-19T03:33:28.703Z,84.80
2018-10-19T03:35:59.170Z,84.90
2018-10-19T03:38:29.643Z,85.00
2018-10-19T03:41:00.428Z,85.40
2018-10-19T03:43:30.871Z,85.60
2018-10-19T03:46:01.370Z,85.70
2018-10-19T03:48:31.731Z,85.80
2018-10-19T03:51:02.264Z,85.80
2018-10-19T03:53:32.634Z,85.90
2018-10-19T03:56:03.374Z,86.00
2018-10-19T03:58:33.752Z,86.20
2018-10-19T04:01:04.237Z,86.30
2018-10-19T04:03:34.793Z,86.40
2018-10-19T04:06:05.351Z,86.60
2018-10-19T04:08:35.751Z,86.60
2018-10-19T04:11:06.224Z,86.70
2018-10-19T04:13:36.739Z,86.80
2018-10-19T04:16:07.631Z,86.90
2018-10-19T04:18:38.053Z,87.10
2018-10-19T04:21:08.624Z,87.50
2018-10-19T04:23:39.051Z,87.80
2018-10-19T04:26:09.484Z,88.10
2018-10-19T04:28:39.936Z,87.80
2018-10-19T04:31:10.474Z,87.70
2018-10-19T04:33:40.877Z,88.30
2018-10-19T04:36:11.592Z,87.30
2018-10-19T04:38:42.004Z,87.30
2018-10-19T04:41:12.413Z,87.20
2018-10-19T04:43:42.727Z,87.20
2018-10-19T04:46:13.159Z,87.00
2018-10-19T04:48:43.871Z,86.80
2018-10-19T04:51:14.266Z,86.70
2018-10-19T04:53:44.777Z,86.70
2018-10-19T04:56:15.172Z,86.70
2018-10-19T04:58:45.507Z,86.60
2018-10-19T05:01:15.851Z,86.40
2018-10-19T05:03:46.170Z,86.50
2018-10-19T05:06:16.545Z,86.70
2018-10-19T05:08:46.879Z,86.90
2018-10-19T05:11:17.309Z,87.00
2018-10-19T05:13:47.606Z,87.00
2018-10-19T05:16:18.009Z,86.90
2018-10-19T05:18:48.365Z,86.90
2018-10-19T05:21:18.729Z,86.80
2018-10-19T05:23:49.066Z,86.80
2018-10-19T05:26:19.432Z,86.70
2018-10-19T05:28:49.788Z,86.70
2018-10-19T05:31:23.773Z,86.60
2018-10-19T05:33:56.592Z,86.50
2018-10-19T05:36:27.357Z,86.80
2018-10-19T05:38:57.756Z,86.70
2018-10-19T05:41:28.481Z,86.60
2018-10-19T05:43:58.827Z,86.40
2018-10-19T05:46:29.305Z,86.30
2018-10-19T05:48:59.779Z,86.20
2018-10-19T05:51:30.237Z,86.20
2018-10-19T05:54:00.674Z,86.00
2018-10-19T05:56:31.308Z,86.20
2018-10-19T05:59:01.698Z,86.20
2018-10-19T06:01:32.266Z,86.40
2018-10-19T06:04:02.799Z,86.50
2018-10-19T06:06:33.279Z,86.90
2018-10-19T06:09:03.812Z,86.70
2018-10-19T06:11:34.275Z,86.70
2018-10-19T06:14:04.757Z,86.60
2018-10-19T06:16:35.228Z,86.80
2018-10-19T06:19:05.771Z,86.90
2018-10-19T06:21:36.258Z,86.80
2018-10-19T06:24:08.069Z,86.70
2018-10-19T06:26:38.597Z,86.60
2018-10-19T06:29:09.181Z,86.60
2018-10-19T06:31:39.739Z,86.60
2018-10-19T06:34:10.239Z,86.50
2018-10-19T06:36:40.652Z,86.50
2018-10-19T06:39:12.412Z,86.90
2018-10-19T06:41:42.876Z,86.90
2018-10-19T06:44:13.351Z,86.90
2018-10-19T06:46:43.935Z,86.80
2018-10-19T06:49:14.496Z,86.90
2018-10-19T06:51:45.084Z,86.80
2018-10-19T06:54:15.507Z,86.70
2018-10-19T06:56:46.000Z,86.60
2018-10-19T06:59:16.524Z,86.50
2018-10-19T07:01:46.931Z,86.50
2018-10-19T07:04:17.379Z,86.60
2018-10-19T07:06:48.024Z,86.80
2018-10-19T07:09:18.501Z,86.80
2018-10-19T07:11:49.053Z,87.10
2018-10-19T07:14:19.556Z,87.10
2018-10-19T07:16:50.018Z,87.20
2018-10-19T07:19:20.520Z,87.20
2018-10-19T07:21:52.246Z,87.30
2018-10-19T07:24:22.660Z,87.30
2018-10-19T07:26:53.182Z,87.40
2018-10-19T07:29:23.699Z,87.50
2018-10-19T07:31:54.213Z,87.60
2018-10-19T07:34:24.585Z,87.80
2018-10-19T07:36:55.004Z,88.10
2018-10-19T07:39:25.562Z,87.90
2018-10-19T07:41:56.112Z,88.00
2018-10-19T07:44:26.599Z,88.10
2018-10-19T07:46:57.083Z,88.10
2018-10-19T07:49:27.622Z,88.30
2018-10-19T07:51:58.124Z,88.60
2018-10-19T07:54:28.585Z,88.80
2018-10-19T07:56:59.171Z,88.70
2018-10-19T07:59:29.532Z,88.80
2018-10-19T08:02:00.136Z,89.00
2018-10-19T08:04:30.632Z,88.80
2018-10-19T08:07:01.078Z,88.80
2018-10-19T08:09:31.525Z,89.30
2018-10-19T08:12:01.990Z,89.20
2018-10-19T08:14:32.717Z,89.10
2018-10-19T08:17:03.299Z,89.20
2018-10-19T08:19:33.737Z,89.40
2018-10-19T08:22:04.212Z,88.30
2018-10-19T08:24:34.685Z,88.20
2018-10-19T08:27:05.582Z,88.20
2018-10-19T08:29:36.041Z,88.00
2018-10-19T08:32:07.305Z,87.70
2018-10-19T08:34:37.750Z,87.80
2018-10-19T08:37:08.410Z,87.70
2018-10-19T08:39:39.018Z,87.60
2018-10-19T08:42:09.554Z,87.40
2018-10-19T08:44:40.011Z,87.00
2018-10-19T08:47:10.601Z,86.80
2018-10-19T08:49:41.160Z,86.30
2018-10-19T08:52:11.822Z,86.30
2018-10-19T08:54:42.374Z,86.40
2018-10-19T08:57:13.031Z,86.20
2018-10-19T08:59:44.478Z,85.70
2018-10-19T09:02:15.126Z,85.50
2018-10-19T09:04:45.642Z,84.90
2018-10-19T09:07:16.261Z,84.80
2018-10-19T09:09:46.790Z,84.50
2018-10-19T09:12:17.360Z,84.00
2018-10-19T09:14:54.090Z,84.20
2018-10-19T09:17:24.873Z,84.10
2018-10-19T09:19:55.799Z,83.70
2018-10-19T09:22:26.696Z,83.50
2018-10-19T09:24:57.348Z,83.50
2018-10-19T09:27:27.980Z,83.50
2018-10-19T09:29:58.518Z,83.40
2018-10-19T09:32:29.185Z,83.30
2018-10-19T09:34:59.858Z,83.00
2018-10-19T09:37:30.305Z,82.40
2018-10-19T09:40:00.905Z,82.00
2018-10-19T09:42:31.494Z,81.80
2018-10-19T09:45:02.225Z,81.60
2018-10-19T09:47:32.913Z,81.50
2018-10-19T09:50:03.695Z,81.30
2018-10-19T09:52:34.331Z,80.80
2018-10-19T09:55:04.962Z,80.70
2018-10-19T09:57:35.630Z,80.30
2018-10-19T10:00:09.934Z,80.30
2018-10-19T10:02:40.572Z,80.50
2018-10-19T10:05:11.129Z,80.30
2018-10-19T10:07:42.237Z,79.60
2018-10-19T10:10:13.157Z,79.30
2018-10-19T10:12:43.730Z,79.10
2018-10-19T10:15:14.384Z,79.30
2018-10-19T10:17:44.956Z,78.80
2018-10-19T10:20:15.520Z,79.40
2018-10-19T10:22:46.099Z,79.50
2018-10-19T10:25:16.831Z,79.00
2018-10-19T10:27:47.973Z,78.60
2018-10-19T10:30:18.623Z,78.80
2018-10-19T10:32:49.278Z,78.20
2018-10-19T10:35:19.869Z,78.30
2018-10-19T10:37:50.479Z,77.40
2018-10-19T10:40:20.964Z,77.30
2018-10-19T10:42:51.627Z,76.80
2018-10-19T10:45:22.251Z,76.80
2018-10-19T10:47:53.150Z,75.70
2018-10-19T10:50:23.663Z,76.30
2018-10-19T10:52:54.358Z,76.30
2018-10-19T10:55:24.982Z,75.70
2018-10-19T10:57:55.679Z,75.50
2018-10-19T11:00:26.310Z,74.80
2018-10-19T11:02:56.944Z,74.60
2018-10-19T11:05:27.514Z,73.60
2018-10-19T11:07:59.401Z,72.70
2018-10-19T11:10:31.262Z,72.50
2018-10-19T11:13:01.953Z,72.20
2018-10-19T11:15:32.549Z,71.90
2018-10-19T11:18:03.117Z,71.80
2018-10-19T11:20:33.769Z,72.10
2018-10-19T11:23:05.462Z,71.80
2018-10-19T11:25:36.422Z,70.80
2018-10-19T11:28:07.497Z,71.30
2018-10-19T11:30:38.126Z,71.10
2018-10-19T11:33:08.762Z,70.80
2018-10-19T11:35:39.464Z,70.60
2018-10-19T11:38:10.052Z,70.70
2018-10-19T11:40:40.883Z,71.00
2018-10-19T11:43:13.902Z,70.80
2018-10-19T11:45:44.580Z,70.80
2018-10-19T11:48:15.363Z,70.60
2018-10-19T11:50:46.030Z,70.50
2018-10-19T11:53:17.602Z,69.90
2018-10-19T11:55:57.799Z,70.00
2018-10-19T11:58:28.318Z,69.80
2018-10-19T12:00:58.835Z,68.60
2018-10-19T12:03:29.620Z,68.10
2018-10-19T12:06:00.279Z,67.70
2018-10-19T12:08:30.890Z,68.10
2018-10-19T12:11:01.402Z,68.20
2018-10-19T12:13:31.910Z,67.60
2018-10-19T12:16:02.436Z,66.80
2018-10-19T12:18:32.952Z,66.90
2018-10-19T12:21:03.389Z,66.80
2018-10-19T12:23:33.915Z,66.90
2018-10-19T12:26:04.525Z,67.00
2018-10-19T12:28:35.035Z,67.00
2018-10-19T12:31:05.614Z,66.10
2018-10-19T12:33:36.221Z,67.20
2018-10-19T12:36:07.334Z,67.10
2018-10-19T12:38:37.890Z,67.00
2018-10-19T12:41:08.490Z,67.80
2018-10-19T12:43:38.979Z,68.20
2018-10-19T12:46:29.109Z,69.00
2018-10-19T12:49:00.927Z,68.70
2018-10-19T12:51:31.737Z,67.40
2018-10-19T12:54:13.049Z,68.10
2018-10-19T12:59:38.858Z,68.20
2018-10-19T13:02:17.418Z,66.80
2018-10-19T13:04:59.610Z,68.40
2018-10-19T13:07:30.251Z,68.70
2018-10-19T13:10:01.071Z,68.60
2018-10-19T13:12:31.680Z,68.80
2018-10-19T13:15:02.441Z,68.90
2018-10-19T13:17:32.973Z,69.10
2018-10-19T13:20:03.686Z,68.90
2018-10-19T13:22:34.347Z,68.30
2018-10-19T13:25:04.851Z,69.30
2018-10-19T13:27:35.542Z,67.80
2018-10-19T13:30:06.425Z,67.50
2018-10-19T13:32:37.536Z,67.90
2018-10-19T13:35:08.237Z,68.20
2018-10-19T13:37:38.628Z,66.50
2018-10-19T13:40:09.340Z,68.00
2018-10-19T13:42:39.845Z,68.50
2018-10-19T13:45:10.448Z,68.20
2018-10-19T13:47:43.427Z,68.00
2018-10-19T13:50:13.990Z,67.90
2018-10-19T13:52:44.457Z,67.20
2018-10-19T13:55:15.408Z,67.50
2018-10-19T13:57:45.911Z,67.10
2018-10-19T14:00:17.035Z,66.90
2018-10-19T14:02:47.538Z,66.70
2018-10-19T14:05:18.614Z,66.60
2018-10-19T14:07:49.567Z,66.30
2018-10-19T14:10:21.497Z,66.00
2018-10-19T14:12:52.014Z,65.80
2018-10-19T14:15:23.120Z,66.00
2018-10-19T14:17:53.538Z,66.40
2018-10-19T14:20:23.979Z,66.10
2018-10-19T14:22:54.468Z,65.80
2018-10-19T14:25:28.512Z,64.50
2018-10-19T14:27:59.411Z,64.30
2018-10-19T14:30:30.101Z,64.60
2018-10-19T14:33:00.667Z,64.10
2018-10-19T14:35:31.111Z,64.30
2018-10-19T14:38:01.602Z,63.70
2018-10-19T14:40:32.821Z,64.60
2018-10-19T14:43:03.289Z,63.20
2018-10-19T14:45:33.828Z,63.70
2018-10-19T14:48:04.572Z,63.60
2018-10-19T14:50:35.077Z,64.30
2018-10-19T14:53:05.924Z,63.80
2018-10-19T14:55:37.897Z,63.40
2018-10-19T14:58:07.997Z,63.60
2018-10-19T15:00:38.518Z,63.40
2018-10-19T15:03:09.043Z,63.80
2018-10-19T15:05:39.623Z,63.20
2018-10-19T15:08:10.209Z,63.10
2018-10-19T15:10:40.897Z,62.90
2018-10-19T15:13:11.181Z,62.80
2018-10-19T15:15:42.052Z,62.40
2018-10-19T15:18:12.588Z,62.90
2018-10-19T15:20:43.047Z,62.80
2018-10-19T15:23:13.551Z,63.00
2018-10-19T15:25:44.012Z,63.10
2018-10-19T15:28:14.412Z,62.90
2018-10-19T15:30:44.945Z,62.90
2018-10-19T15:33:15.470Z,62.80
2018-10-19T15:35:46.030Z,62.70
2018-10-19T15:38:16.549Z,62.70
2018-10-19T15:40:47.037Z,62.60
2018-10-19T15:43:17.426Z,62.60
2018-10-19T15:45:47.870Z,62.50
2018-10-19T15:48:18.414Z,62.60
2018-10-19T15:50:49.006Z,62.60
2018-10-19T15:53:19.430Z,62.70
2018-10-19T15:55:49.911Z,62.40
2018-10-19T15:58:20.307Z,62.20
2018-10-19T16:00:50.846Z,62.10
2018-10-19T16:03:22.719Z,62.20
2018-10-19T16:05:53.858Z,61.70
2018-10-19T16:08:25.042Z,61.30
2018-10-19T16:10:56.271Z,61.20
2018-10-19T16:13:27.081Z,60.90
2018-10-19T16:15:58.129Z,60.90
2018-10-19T16:18:28.906Z,61.10
2018-10-19T16:20:59.954Z,61.20
2018-10-19T16:23:30.954Z,61.30
2018-10-19T16:26:01.876Z,61.30
2018-10-19T16:28:33.057Z,61.70
2018-10-19T16:31:04.093Z,61.80
2018-10-19T16:33:35.282Z,62.20
2018-10-19T16:36:11.968Z,62.40
2018-10-19T16:38:51.233Z,62.60
2018-10-19T16:41:36.629Z,62.50
2018-10-19T16:51:16.352Z,62.80
2018-10-19T17:24:05.477Z,64.60
2018-10-19T17:26:55.150Z,64.90
2018-10-19T17:32:55.405Z,64.90
2018-10-19T17:35:30.079Z,65.00
2018-10-19T17:38:05.095Z,64.70
2018-10-19T17:40:38.099Z,64.70
2018-10-19T17:43:12.915Z,64.50
2018-10-19T17:45:55.379Z,64.60
2018-10-19T17:48:25.897Z,64.70
2018-10-19T17:51:06.319Z,65.00
2018-10-19T17:53:39.660Z,65.10
2018-10-19T17:56:10.185Z,65.30
2018-10-19T17:58:58.390Z,65.40
2018-10-19T18:01:35.840Z,65.60
2018-10-19T18:04:18.375Z,65.70
2018-10-19T18:07:01.628Z,65.90
2018-10-19T18:16:16.114Z,66.20
2018-10-19T18:19:20.474Z,66.40
2018-10-19T18:22:31.014Z,66.20
2018-10-19T18:25:47.499Z,66.20
2018-10-19T18:28:44.839Z,66.10
2018-10-19T18:59:17.869Z,67.10
2018-10-19T19:09:20.472Z,66.80
2018-10-19T19:12:42.217Z,67.10
2018-10-19T19:18:47.069Z,67.40
2018-10-19T19:31:23.288Z,68.40
2018-10-19T19:34:12.329Z,68.60
2018-10-19T19:37:10.550Z,68.80
2018-10-19T19:40:18.227Z,68.80
2018-10-19T19:43:04.066Z,69.10
2018-10-19T19:45:56.001Z,68.90
2018-10-19T19:48:47.556Z,68.90
2018-10-19T19:51:37.830Z,69.10
2018-10-19T19:54:38.390Z,69.10
2018-10-19T19:57:14.382Z,69.30
2018-10-19T19:59:51.521Z,69.30
2018-10-19T20:02:32.321Z,69.30
2018-10-19T20:05:14.956Z,69.40
2018-10-19T20:07:59.884Z,69.60
2018-10-19T20:10:54.187Z,69.60
2018-10-19T20:13:44.231Z,69.60
2018-10-19T20:16:24.281Z,69.90
2018-10-19T20:18:59.402Z,70.10
2018-10-19T20:21:43.750Z,70.10
2018-10-19T20:27:25.433Z,70.50
2018-10-19T20:30:06.049Z,70.30
2018-10-19T20:35:43.402Z,70.20
2018-10-19T20:38:32.170Z,70.30
2018-10-19T20:41:18.405Z,70.70
2018-10-19T20:44:10.766Z,70.90
2018-10-19T20:46:54.356Z,71.00
2018-10-19T20:49:45.944Z,71.20
2018-10-19T20:55:21.430Z,71.10
2018-10-19T21:00:52.662Z,71.10
2018-10-19T21:03:30.942Z,71.10
2018-10-19T21:06:08.990Z,71.10
2018-10-19T21:08:49.525Z,71.20
2018-10-19T21:11:22.830Z,71.30
2018-10-19T21:13:58.059Z,71.50
2018-10-19T21:16:34.136Z,71.90
2018-10-19T21:19:08.489Z,72.70
2018-10-19T21:21:43.492Z,72.20
2018-10-19T21:24:17.309Z,72.30
2018-10-19T21:26:50.697Z,72.30
2018-10-19T21:29:23.156Z,72.20
2018-10-19T21:31:57.056Z,72.30
2018-10-19T21:34:30.499Z,72.40
2018-10-19T21:37:05.418Z,72.60
2018-10-19T21:39:37.077Z,72.70
2018-10-19T21:42:08.490Z,72.50
2018-10-19T21:44:39.880Z,72.50
2018-10-19T21:47:13.741Z,72.50
2018-10-19T21:49:47.551Z,72.70
2018-10-19T21:52:22.189Z,72.90
2018-10-19T21:54:55.142Z,73.10
2018-10-19T21:57:27.373Z,73.20
2018-10-19T22:00:00.868Z,73.10
2018-10-19T22:02:34.714Z,73.10
2018-10-19T22:05:07.279Z,73.20
2018-10-19T22:07:39.812Z,73.20
2018-10-19T22:10:11.641Z,73.20
2018-10-19T22:12:43.663Z,73.30
2018-10-19T22:15:15.129Z,73.40
2018-10-19T22:17:46.247Z,73.40
2018-10-19T22:20:17.457Z,73.40
2018-10-19T22:22:48.792Z,73.50
2018-10-19T22:25:20.094Z,73.40
2018-10-19T22:27:51.412Z,73.50
2018-10-19T22:30:24.545Z,73.60
2018-10-19T22:33:26.056Z,73.70
2018-10-19T22:36:05.514Z,73.60
2018-10-19T22:38:49.750Z,74.90
2018-10-19T22:41:31.786Z,75.00
2018-10-19T22:44:19.399Z,75.10
2018-10-19T22:47:03.635Z,75.30
2018-10-19T22:49:46.843Z,75.20
2018-10-19T22:52:34.882Z,76.00
2018-10-19T22:55:15.747Z,75.30
2018-10-19T22:57:56.340Z,75.40
2018-10-19T23:00:33.692Z,75.50
2018-10-19T23:03:20.540Z,75.40
2018-10-19T23:12:02.736Z,75.00
2018-10-19T23:14:33.111Z,75.10
2018-10-19T23:17:06.114Z,75.20
2018-10-19T23:19:37.581Z,75.30
2018-10-19T23:22:12.290Z,75.40
2018-10-19T23:24:49.506Z,75.50
2018-10-19T23:27:22.978Z,75.70
2018-10-19T23:29:55.938Z,75.50
2018-10-19T23:32:28.938Z,75.50
2018-10-19T23:35:05.691Z,75.40
2018-10-19T23:37:43.094Z,75.40
2018-10-19T23:40:18.941Z,75.50
2018-10-19T23:42:53.915Z,75.30
2018-10-19T23:45:35.175Z,75.90
2018-10-19T23:48:13.908Z,75.00
2018-10-19T23:50:52.853Z,74.90
2018-10-19T23:53:31.406Z,74.90
2018-10-19T23:56:16.109Z,75.20
2018-10-19T23:58:59.556Z,75.00
